Time;durP1;ratioP1;P1;durP2;ratioP2;P2;SDS_P1;SDS_P2;PMS_P1;PMS_P2;Temp;Humidity;BMP_temperature;BMP_pressure;BME280_temperature;BME280_humidity;BME280_pressure;Samples;Min_cycle;Max_cycle;Signal;HPM_P1;HPM_P2
2023/10/08 00:00:49;;;;;;;1999.90;999.90;;;;;;;9.48;100.00;98738.75;18636401;31;20127;-59
2023/10/08 00:10:52;;;;;;;1999.90;999.90;;;;;;;9.39;100.00;98734.75;18635742;31;20048;-60
2023/10/08 00:20:58;;;;;;;1999.90;999.90;;;;;;;9.35;100.00;98744.37;18635440;31;20116;-59
2023/10/08 00:31:12;;;;;;;1999.90;999.90;;;;;;;9.33;100.00;98743.78;18627594;31;20088;-60
2023/10/08 00:41:16;;;;;;;1999.90;999.90;;;;;;;9.16;100.00;98732.88;18632843;31;20108;-59
2023/10/08 01:01:25;;;;;;;1999.90;999.90;;;;;;;9.25;100.00;98726.06;18632652;31;20394;-60
2023/10/08 01:11:39;;;;;;;1999.90;999.90;;;;;;;9.19;100.00;98718.09;18631901;31;20082;-59
2023/10/08 01:21:42;;;;;;;1999.90;999.90;;;;;;;9.16;100.00;98722.91;18631826;31;20133;-60
2023/10/08 01:31:46;;;;;;;1999.90;999.90;;;;;;;8.76;100.00;98707.41;18616743;31;20064;-60
2023/10/08 01:41:51;;;;;;;1999.90;999.90;;;;;;;8.98;100.00;98704.13;18629833;31;20067;-60
2023/10/08 01:51:54;;;;;;;;;;;;;;;9.04;100.00;98700.50;18629426;31;20143;-60
2023/10/08 02:01:57;;;;;;;1999.90;999.90;;;;;;;8.94;100.00;98705.66;18629588;31;19981;-59
2023/10/08 02:12:00;;;;;;;1999.90;999.90;;;;;;;8.97;100.00;98689.81;18628193;31;20070;-58
2023/10/08 02:22:05;;;;;;;1999.90;999.90;;;;;;;8.94;100.00;98686.78;18620792;31;20483;-58
2023/10/08 02:32:09;;;;;;;1999.90;999.90;;;;;;;8.95;100.00;98688.44;18627216;31;20056;-60
2023/10/08 02:42:14;;;;;;;1999.90;999.90;;;;;;;8.83;100.00;98683.03;18611622;31;20049;-59
2023/10/08 02:52:17;;;;;;;1999.90;999.90;;;;;;;8.69;100.00;98685.13;18626026;31;20056;-59
2023/10/08 03:02:21;;;;;;;1999.90;999.90;;;;;;;8.65;100.00;98684.75;18625378;31;20064;-59
2023/10/08 03:12:25;;;;;;;1999.90;999.90;;;;;;;8.57;100.00;98687.78;18625444;31;20045;-59
2023/10/08 03:22:33;;;;;;;1999.90;999.90;;;;;;;8.34;100.00;98677.75;18611106;31;20092;-60
2023/10/08 03:32:36;;;;;;;1999.90;999.90;;;;;;;8.42;100.00;98669.31;18625333;31;20063;-59
2023/10/08 03:42:42;;;;;;;1999.90;999.90;;;;;;;8.53;100.00;98675.00;18624160;31;20056;-59
2023/10/08 03:52:48;;;;;;;1999.90;999.90;;;;;;;8.37;100.00;98679.97;18611117;31;20079;-60
2023/10/08 04:02:55;;;;;;;1999.90;999.90;;;;;;;8.36;100.00;98675.66;18609910;31;20089;-59
2023/10/08 04:12:58;;;;;;;1999.90;999.90;;;;;;;8.36;100.00;98686.44;18609212;31;20364;-59
2023/10/08 04:23:04;;;;;;;1999.90;999.90;;;;;;;8.34;100.00;98676.94;18634938;31;20067;-59
2023/10/08 04:33:12;;;;;;;1999.90;999.90;;;;;;;8.29;100.00;98667.66;18634386;31;20368;-59
2023/10/08 04:43:22;;;;;;;1999.90;999.90;;;;;;;8.29;100.00;98674.91;18633615;31;20413;-59
2023/10/08 04:53:31;;;;;;;1999.90;999.90;;;;;;;8.17;100.00;98661.44;18633420;31;20075;-59
2023/10/08 05:03:43;;;;;;;1999.90;999.90;;;;;;;8.05;100.00;98666.75;18632908;31;20411;-59
2023/10/08 05:14:02;;;;;;;1999.90;999.90;;;;;;;7.90;100.00;98661.78;18631976;31;20086;-59
2023/10/08 05:24:08;;;;;;;1999.90;999.90;;;;;;;7.85;100.00;98674.28;18631058;31;20065;-59
2023/10/08 05:34:18;;;;;;;1999.90;999.90;;;;;;;7.82;100.00;98688.22;18616471;31;20067;-59
2023/10/08 06:04:53;;;;;;;1999.90;999.90;;;;;;;7.67;100.00;98732.50;18628657;31;20052;-58
2023/10/08 06:15:08;;;;;;;1999.90;999.90;;;;;;;7.70;100.00;98745.53;18628158;31;20111;-59
2023/10/08 06:25:22;;;;;;;1999.90;999.90;;;;;;;7.91;100.00;98736.16;18627367;31;20060;-59
2023/10/08 06:35:27;;;;;;;1999.90;999.90;;;;;;;8.12;100.00;98710.59;18626831;31;20044;-59
2023/10/08 06:45:32;;;;;;;1999.90;999.90;;;;;;;8.35;100.00;98708.22;18625971;31;20075;-59
2023/10/08 06:55:35;;;;;;;1999.90;999.90;;;;;;;8.63;100.00;98713.00;18619886;31;20100;-59
2023/10/08 07:05:40;;;;;;;1999.90;999.90;;;;;;;8.89;100.00;98710.94;18611548;31;20601;-60
2023/10/08 07:15:45;;;;;;;1999.90;999.90;;;;;;;9.19;100.00;98731.59;18625590;31;20083;-60
2023/10/08 07:26:11;;;;;;;1999.90;999.90;;;;;;;9.46;100.00;98713.03;18611140;31;20437;-60
2023/10/08 07:36:14;;;;;;;1999.90;999.90;;;;;;;9.74;100.00;98711.44;18624478;31;20079;-60
2023/10/08 07:46:18;;;;;;;1999.90;999.90;;;;;;;10.16;100.00;98728.22;18610302;31;20079;-60
2023/10/08 07:56:21;;;;;;;1999.90;999.90;;;;;;;10.79;100.00;98743.72;18635722;31;20071;-60
2023/10/08 08:06:25;;;;;;;1999.90;999.90;;;;;;;11.47;100.00;98759.91;18635942;31;20107;-60
2023/10/08 08:16:29;;;;;;;1999.90;999.90;;;;;;;12.22;100.00;98762.25;18635645;31;20170;-60
2023/10/08 08:27:00;;;;;;;1999.90;999.90;;;;;;;12.53;100.00;98772.34;18634992;31;20222;-60
2023/10/08 08:37:04;;;;;;;1999.90;999.90;;;;;;;13.01;100.00;98769.00;18634075;31;20367;-57
2023/10/08 08:47:10;;;;;;;1999.90;999.90;;;;;;;13.50;100.00;98774.28;18633493;31;20052;-58
2023/10/08 08:57:13;;;;;;;1999.90;999.90;;;;;;;13.90;100.00;98772.84;18619733;31;20087;-58
2023/10/08 09:07:21;;;;;;;1999.90;999.90;;;;;;;14.46;100.00;98785.03;18631738;31;20433;-58
2023/10/08 09:17:25;;;;;;;1999.90;999.90;;;;;;;14.74;100.00;98772.06;18631759;31;20388;-58
2023/10/08 09:27:30;;;;;;;1999.90;999.90;;;;;;;15.19;100.00;98784.06;18616995;31;20121;-58
2023/10/08 09:37:34;;;;;;;;;;;;;;;15.89;100.00;98777.97;18630232;31;20120;-58
2023/10/08 09:47:42;;;;;;;1999.90;999.90;;;;;;;16.15;100.00;98785.25;18630440;31;19956;-58
2023/10/08 09:57:46;;;;;;;1999.90;999.90;;;;;;;16.74;100.00;98781.66;18628847;31;20068;-58
2023/10/08 10:07:48;;;;;;;1999.90;999.90;;;;;;;17.48;100.00;98777.28;18628421;31;20064;-58
2023/10/08 10:17:51;;;;;;;1999.90;999.90;;;;;;;17.63;95.08;98779.84;18613564;31;20052;-58
2023/10/08 10:27:55;;;;;;;1999.90;999.90;;;;;;;17.71;100.00;98764.75;18627247;31;20080;-58
2023/10/08 10:38:03;;;;;;;1999.90;999.90;;;;;;;18.47;84.98;98775.88;18626474;31;20048;-58
2023/10/08 10:48:21;;;;;;;1999.90;999.90;;;;;;;18.54;93.18;98778.25;18626616;31;20052;-58
2023/10/08 10:58:26;;;;;;;1999.90;999.90;;;;;;;18.91;85.16;98766.50;18626087;31;20067;-58
2023/10/08 11:08:34;;;;;;;1999.90;999.90;;;;;;;19.32;81.10;98761.44;18625532;31;20131;-58
2023/10/08 11:18:46;;;;;;;1999.90;999.90;;;;;;;19.98;66.97;98762.97;18625424;31;20060;-58
2023/10/08 11:28:49;;;;;;;1999.90;999.90;;;;;;;20.41;65.06;98755.50;18634072;31;20097;-58
2023/10/08 11:38:53;;;;;;;1999.90;999.90;;;;;;;20.68;100.00;98737.31;18637237;31;20079;-58
2023/10/08 11:48:58;;;;;;;1999.90;999.90;;;;;;;21.27;66.59;98740.84;18637094;31;20053;-58
2023/10/08 11:59:11;;;;;;;1999.90;999.90;;;;;;;21.76;100.00;98731.84;18636506;31;20115;-58
2023/10/08 12:09:14;;;;;;;1999.90;999.90;;;;;;;22.56;98.48;98730.94;18635999;31;20060;-58
2023/10/08 12:19:18;;;;;;;1999.90;999.90;;;;;;;23.15;56.70;98722.97;18628660;31;20092;-58
2023/10/08 12:29:24;;;;;;;1999.90;999.90;;;;;;;23.50;50.29;98719.28;18634673;31;20423;-58
2023/10/08 12:39:30;;;;;;;1999.90;999.90;;;;;;;23.48;59.43;98714.09;18632897;31;20436;-58
2023/10/08 12:49:33;;;;;;;1999.90;999.90;;;;;;;23.80;63.48;98706.34;18633285;31;20128;-58
2023/10/08 12:59:38;;;;;;;1999.90;999.90;;;;;;;23.58;59.49;98701.09;18632843;31;20043;-58
2023/10/08 13:09:42;;;;;;;1999.90;999.90;;;;;;;23.41;52.99;98693.69;18632060;31;20100;-58
2023/10/08 13:19:46;;;;;;;1999.90;999.90;;;;;;;23.32;51.92;98689.00;18631477;31;20056;-58
2023/10/08 13:29:48;;;;;;;1999.90;999.90;;;;;;;23.17;57.07;98676.56;18630721;31;20100;-58
2023/10/08 13:39:52;;;;;;;1999.90;999.90;;;;;;;22.85;53.68;98672.38;18629986;31;20371;-58
2023/10/08 13:49:57;;;;;;;1999.90;999.90;;;;;;;22.91;56.06;98662.78;18615473;31;20064;-58
2023/10/08 14:00:00;;;;;;;1999.90;999.90;;;;;;;22.57;58.00;98647.94;18629086;31;20158;-58
2023/10/08 14:10:08;;;;;;;1999.90;999.90;;;;;;;22.33;62.02;98642.88;18628509;31;20060;-58
2023/10/08 14:20:21;;;;;;;1999.90;999.90;;;;;;;22.17;60.64;98631.50;18628384;31;20392;-58
2023/10/08 14:30:25;;;;;;;1999.90;999.90;;;;;;;22.26;63.76;98632.34;18627343;31;20071;-58
2023/10/08 14:50:49;;;;;;;1999.90;999.90;;;;;;;21.85;69.63;98624.53;18626536;31;20067;-58
2023/10/08 15:00:54;;;;;;;1999.90;999.90;;;;;;;21.70;76.85;98625.81;18625131;31;20079;-58
2023/10/08 15:10:56;;;;;;;1999.90;999.90;;;;;;;21.48;91.96;98621.97;18625621;31;20096;-58
2023/10/08 15:20:59;;;;;;;1999.90;999.90;;;;;;;21.25;99.86;98610.25;18625376;31;20143;-58
2023/10/08 15:31:01;;;;;;;1999.90;999.90;;;;;;;21.11;100.00;98599.34;18624906;31;20071;-58
2023/10/08 15:41:05;;;;;;;1999.90;999.90;;;;;;;20.97;100.00;98594.75;18610195;31;20059;-58
2023/10/08 15:51:07;;;;;;;1999.90;999.90;;;;;;;20.71;100.00;98591.87;18624729;31;20053;-58
2023/10/08 16:01:12;;;;;;;1999.90;999.90;;;;;;;20.35;100.00;98583.69;18617311;31;20089;-58
2023/10/08 16:11:15;;;;;;;1999.90;999.90;;;;;;;20.01;100.00;98582.28;18628075;31;20080;-58
2023/10/08 16:21:20;;;;;;;1999.90;999.90;;;;;;;19.61;100.00;98586.44;18635131;31;20064;-58
2023/10/08 16:31:23;;;;;;;1999.90;999.90;;;;;;;19.22;100.00;98590.50;18634825;31;20116;-58
2023/10/08 16:41:25;;;;;;;1999.90;999.90;;;;;;;18.77;100.00;98599.28;18633673;31;20074;-58
2023/10/08 16:51:28;;;;;;;1999.90;999.90;;;;;;;18.34;100.00;98604.13;18619964;31;20049;-58
2023/10/08 17:01:31;;;;;;;1999.90;999.90;;;;;;;17.85;100.00;98601.50;18618669;31;20052;-58
2023/10/08 17:11:37;;;;;;;1999.90;999.90;;;;;;;17.41;100.00;98603.44;18633039;31;20101;-58
2023/10/08 17:21:39;;;;;;;1999.90;999.90;;;;;;;17.01;100.00;98602.81;18616276;31;20080;-58
2023/10/08 17:31:42;;;;;;;1999.90;999.90;;;;;;;16.56;100.00;98605.66;18630973;31;20134;-58
2023/10/08 17:41:45;;;;;;;1999.90;999.90;;;;;;;16.20;100.00;98600.50;18615540;31;20372;-58
2023/10/08 17:51:58;;;;;;;1999.90;999.90;;;;;;;15.90;100.00;98610.50;18608930;31;20101;-58
2023/10/08 18:02:22;;;;;;;1999.90;999.90;;;;;;;15.51;100.00;98608.50;18629347;31;20124;-58
2023/10/08 18:12:44;;;;;;;1999.90;999.90;;;;;;;15.27;100.00;98616.50;18613806;31;20399;-58
2023/10/08 18:22:55;;;;;;;1999.90;999.90;;;;;;;15.07;100.00;98603.75;18627938;31;20390;-58
2023/10/08 18:32:58;;;;;;;1999.90;999.90;;;;;;;14.85;100.00;98602.16;18626669;31;20053;-58
2023/10/08 18:43:00;;;;;;;1999.90;999.90;;;;;;;14.65;100.00;98599.44;18625781;31;20096;-58
2023/10/08 18:53:03;;;;;;;1999.90;999.90;;;;;;;14.37;100.00;98599.69;18620990;31;20103;-58
2023/10/08 19:03:08;;;;;;;1999.90;999.90;;;;;;;14.29;100.00;98594.00;18626129;31;20063;-58
2023/10/08 19:13:11;;;;;;;1999.90;999.90;;;;;;;14.12;100.00;98595.06;18611692;31;20056;-58
2023/10/08 19:23:14;;;;;;;1999.90;999.90;;;;;;;13.97;100.00;98593.16;18625207;31;20060;-58
2023/10/08 19:33:17;;;;;;;1999.90;999.90;;;;;;;13.88;100.00;98594.75;18610792;31;20044;-58
2023/10/08 19:43:22;;;;;;;1999.90;999.90;;;;;;;13.75;100.00;98587.16;18625212;31;20456;-58
2023/10/08 19:53:25;;;;;;;1999.90;999.90;;;;;;;13.63;100.00;98590.09;18637632;31;20045;-58
2023/10/08 20:03:28;;;;;;;1999.90;999.90;;;;;;;13.45;100.00;98594.91;18637167;31;20376;-58
2023/10/08 20:13:31;;;;;;;1999.90;999.90;;;;;;;13.27;100.00;98588.03;18636009;31;20052;-58
2023/10/08 20:23:39;;;;;;;1999.90;999.90;;;;;;;13.12;100.00;98582.53;18621206;31;20045;-58
2023/10/08 20:33:44;;;;;;;1999.90;999.90;;;;;;;12.91;100.00;98587.84;18628029;31;20104;-58
2023/10/08 20:43:48;;;;;;;1999.90;999.90;;;;;;;12.81;100.00;98583.19;18619847;31;20048;-58
2023/10/08 20:53:52;;;;;;;1999.90;999.90;;;;;;;12.75;100.00;98584.22;18633485;31;20037;-58
2023/10/08 21:03:55;;;;;;;1999.90;999.90;;;;;;;12.65;100.00;98586.88;18631878;31;20100;-58
2023/10/08 21:13:58;;;;;;;1999.90;999.90;;;;;;;12.56;100.00;98591.16;18632733;31;20041;-58
2023/10/08 21:24:01;;;;;;;1999.90;999.90;;;;;;;12.46;100.00;98589.19;18617158;31;20100;-58
2023/10/08 21:34:05;;;;;;;1999.90;999.90;;;;;;;12.33;100.00;98579.56;18603294;31;20071;-58
2023/10/08 21:44:07;;;;;;;1999.90;999.90;;;;;;;12.29;100.00;98568.44;18630493;31;20056;-58
2023/10/08 21:54:10;;;;;;;1999.90;999.90;;;;;;;12.16;100.00;98561.53;18615251;31;20106;-58
2023/10/08 22:04:13;;;;;;;1999.90;999.90;;;;;;;12.02;100.00;98554.94;18629030;31;20488;-58
2023/10/08 22:14:18;;;;;;;1999.90;999.90;;;;;;;11.96;100.00;98542.38;18628248;31;20105;-58
2023/10/08 22:24:23;;;;;;;1999.90;999.90;;;;;;;11.68;100.00;98538.84;18621255;31;20048;-57
2023/10/08 22:34:42;;;;;;;1999.90;999.90;;;;;;;11.62;100.00;98534.44;18627397;31;20074;-58
2023/10/08 22:45:17;;;;;;;1999.90;999.90;;;;;;;11.57;100.00;98529.00;18626232;31;20044;-58
2023/10/08 22:55:22;;;;;;;1999.90;999.90;;;;;;;11.55;100.00;98525.72;18626467;31;20353;-58
2023/10/08 23:05:26;;;;;;;1999.90;999.90;;;;;;;11.57;100.00;98516.25;18611976;31;20044;-58
2023/10/08 23:15:28;;;;;;;1999.90;999.90;;;;;;;11.59;100.00;98510.59;18611137;31;20060;-58
2023/10/08 23:25:31;;;;;;;1999.90;999.90;;;;;;;11.55;100.00;98506.75;18635544;31;20068;-58
2023/10/08 23:35:40;;;;;;;1999.90;999.90;;;;;;;11.42;100.00;98500.69;18638467;31;20053;-58
2023/10/08 23:45:55;;;;;;;1999.90;999.90;;;;;;;11.28;100.00;98486.72;18637657;31;20104;-58
2023/10/08 23:56:04;;;;;;;1999.90;999.90;;;;;;;11.08;100.00;98476.47;18637177;31;20472;-58
